createdAt,value
2019-06-01T00:01:52.452Z,2.50
2019-06-01T00:04:20.738Z,2.35
2019-06-01T00:06:49.058Z,2.30
2019-06-01T00:09:17.203Z,2.12
2019-06-01T00:11:45.594Z,1.80
2019-06-01T00:14:13.870Z,1.98
2019-06-01T00:16:41.982Z,2.40
2019-06-01T00:19:10.226Z,1.90
2019-06-01T00:21:38.344Z,1.72
2019-06-01T00:24:06.581Z,2.08
2019-06-01T00:26:34.560Z,2.08
2019-06-01T00:29:02.642Z,1.87
2019-06-01T00:31:30.680Z,2.00
2019-06-01T00:33:58.759Z,2.60
2019-06-01T00:36:26.783Z,2.58
2019-06-01T00:38:54.930Z,2.47
2019-06-01T00:41:23.294Z,2.02
2019-06-01T00:43:52.529Z,1.92
2019-06-01T00:46:20.615Z,2.25
2019-06-01T00:48:49.876Z,2.70
2019-06-01T00:51:18.300Z,2.05
2019-06-01T00:53:47.399Z,2.12
2019-06-01T00:56:15.767Z,2.00
2019-06-01T00:58:43.848Z,2.30
2019-06-01T01:01:11.997Z,2.55
2019-06-01T01:03:40.176Z,2.33
2019-06-01T01:06:08.118Z,2.92
2019-06-01T01:08:36.324Z,3.50
2019-06-01T01:11:04.338Z,3.02
2019-06-01T01:13:32.138Z,2.95
2019-06-01T01:16:00.524Z,3.83
2019-06-01T01:18:28.485Z,3.02
2019-06-01T01:20:56.537Z,3.50
2019-06-01T01:23:24.589Z,3.05
2019-06-01T01:25:52.842Z,3.50
2019-06-01T01:28:23.843Z,2.80
2019-06-01T01:31:05.151Z,3.30
2019-06-01T01:33:21.360Z,3.37
2019-06-01T01:35:49.706Z,3.87
2019-06-01T01:38:17.661Z,3.02
2019-06-01T01:40:45.521Z,3.35
2019-06-01T01:43:13.390Z,3.17
2019-06-01T01:45:41.919Z,3.55
2019-06-01T01:48:09.860Z,2.72
2019-06-01T01:50:37.957Z,3.65
2019-06-01T01:53:05.994Z,3.42
2019-06-01T01:55:33.921Z,3.50
2019-06-01T01:58:01.836Z,3.40
2019-06-01T02:00:38.562Z,3.70
2019-06-01T02:03:07.393Z,3.37
2019-06-01T02:05:35.246Z,3.37
2019-06-01T02:08:04.486Z,4.00
2019-06-01T02:10:32.339Z,4.00
2019-06-01T02:13:01.787Z,3.80
2019-06-01T02:15:31.189Z,4.17
2019-06-01T02:18:00.645Z,3.67
2019-06-01T02:20:29.086Z,4.12
2019-06-01T02:22:57.152Z,3.87
2019-06-01T02:25:25.256Z,4.10
2019-06-01T02:27:53.192Z,3.60
2019-06-01T02:30:21.259Z,4.05
2019-06-01T02:32:49.200Z,3.60
2019-06-01T02:35:17.541Z,4.05
2019-06-01T02:37:45.766Z,3.85
2019-06-01T02:40:14.179Z,4.03
2019-06-01T02:42:42.398Z,4.53
2019-06-01T02:45:11.574Z,4.10
2019-06-01T02:47:39.711Z,3.83
2019-06-01T02:50:08.556Z,4.20
2019-06-01T02:52:36.496Z,4.35
2019-06-01T02:55:06.498Z,5.03
2019-06-01T02:57:35.062Z,4.30
2019-06-01T03:00:04.844Z,4.12
2019-06-01T03:02:32.875Z,4.75
2019-06-01T03:05:01.190Z,4.78
2019-06-01T03:07:30.851Z,4.22
2019-06-01T03:10:03.150Z,4.30
2019-06-01T03:12:36.458Z,5.28
2019-06-01T03:15:04.775Z,4.42
2019-06-01T03:17:34.442Z,4.40
2019-06-01T03:20:04.906Z,4.35
2019-06-01T03:22:34.070Z,3.95
2019-06-01T03:25:05.923Z,5.20
2019-06-01T03:27:36.498Z,4.65
2019-06-01T03:30:08.895Z,4.95
2019-06-01T03:32:37.599Z,7.17
2019-06-01T03:35:06.748Z,6.65
2019-06-01T03:37:34.910Z,7.55
2019-06-01T03:40:06.870Z,7.03
2019-06-01T03:42:33.473Z,8.35
2019-06-01T03:45:01.517Z,7.35
2019-06-01T03:47:29.402Z,7.08
2019-06-01T03:49:57.359Z,7.17
2019-06-01T03:52:25.336Z,6.60
2019-06-01T03:54:53.424Z,5.90
2019-06-01T03:57:21.284Z,6.50
2019-06-01T03:59:49.211Z,5.33
2019-06-01T04:02:17.052Z,5.53
2019-06-01T04:04:44.887Z,6.25
2019-06-01T04:07:12.845Z,5.75
2019-06-01T04:09:41.768Z,6.08
2019-06-01T04:12:09.800Z,5.70
2019-06-01T04:14:37.794Z,6.35
2019-06-01T04:17:06.142Z,5.25
2019-06-01T04:19:34.186Z,6.60
2019-06-01T04:22:02.187Z,6.25
2019-06-01T04:24:30.334Z,5.72
2019-06-01T04:26:58.430Z,6.40
2019-06-01T04:29:26.273Z,5.08
2019-06-01T04:31:54.141Z,5.45
2019-06-01T04:34:22.166Z,4.85
2019-06-01T04:36:50.159Z,5.05
2019-06-01T04:39:18.300Z,5.30
2019-06-01T04:41:46.221Z,4.80
2019-06-01T04:44:14.417Z,5.97
2019-06-01T04:46:42.954Z,5.85
2019-06-01T04:49:11.051Z,6.20
2019-06-01T04:51:38.941Z,6.08
2019-06-01T04:54:06.940Z,6.20
2019-06-01T04:56:35.291Z,5.15
2019-06-01T04:59:03.235Z,4.87
2019-06-01T05:01:31.127Z,4.97
2019-06-01T05:03:59.496Z,5.50
2019-06-01T05:06:27.720Z,5.78
2019-06-01T05:08:55.610Z,6.15
2019-06-01T05:11:23.509Z,5.35
2019-06-01T05:13:51.841Z,6.10
2019-06-01T05:16:20.064Z,6.05
2019-06-01T05:18:48.049Z,5.30
2019-06-01T05:21:16.859Z,6.58
2019-06-01T05:23:44.785Z,4.20
2019-06-01T05:26:13.101Z,4.40
2019-06-01T05:28:41.079Z,3.43
2019-06-01T05:31:13.221Z,3.80
2019-06-01T05:33:38.809Z,4.57
2019-06-01T05:36:07.919Z,6.00
2019-06-01T05:38:36.007Z,4.43
2019-06-01T05:41:04.539Z,4.47
2019-06-01T05:43:32.355Z,6.43
2019-06-01T05:46:00.219Z,6.30
2019-06-01T05:48:30.793Z,6.20
2019-06-01T05:50:58.908Z,6.57
2019-06-01T05:53:26.889Z,7.27
2019-06-01T05:55:54.873Z,6.93
2019-06-01T05:58:22.773Z,6.60
2019-06-01T06:00:52.071Z,6.67
2019-06-01T06:03:22.304Z,6.23
2019-06-01T06:05:50.426Z,6.20
2019-06-01T06:08:18.468Z,5.17
2019-06-01T06:10:46.694Z,5.30
2019-06-01T06:13:15.303Z,4.87
2019-06-01T06:15:43.559Z,4.23
2019-06-01T06:18:11.734Z,3.20
2019-06-01T06:20:40.029Z,3.50
2019-06-01T06:23:07.961Z,3.27
2019-06-01T06:25:39.247Z,3.50
2019-06-01T06:28:05.932Z,4.00
2019-06-01T06:30:34.349Z,4.37
2019-06-01T06:33:02.427Z,4.17
2019-06-01T06:35:30.848Z,3.60
2019-06-01T06:37:59.247Z,3.67
2019-06-01T06:40:27.358Z,3.07
2019-06-01T06:42:55.310Z,3.03
2019-06-01T06:45:23.428Z,3.73
2019-06-01T06:47:51.757Z,3.43
2019-06-01T06:50:19.699Z,3.07
2019-06-01T06:52:48.266Z,4.47
2019-06-01T06:55:16.253Z,3.00
2019-06-01T06:57:44.417Z,2.93
2019-06-01T07:00:14.079Z,2.87
2019-06-01T07:02:42.081Z,3.00
2019-06-01T07:05:10.503Z,2.90
2019-06-01T07:07:38.726Z,2.77
2019-06-01T07:10:06.645Z,2.80
2019-06-01T07:12:34.821Z,3.33
2019-06-01T07:15:03.801Z,3.07
2019-06-01T07:17:32.218Z,2.67
2019-06-01T07:20:00.074Z,3.43
2019-06-01T07:22:28.131Z,3.33
2019-06-01T07:24:56.239Z,3.23
2019-06-01T07:27:24.644Z,2.90
2019-06-01T07:29:52.902Z,2.90
2019-06-01T07:32:22.041Z,2.93
2019-06-01T07:34:50.168Z,3.30
2019-06-01T07:37:18.064Z,3.40
2019-06-01T07:39:47.995Z,3.57
2019-06-01T07:42:16.941Z,3.17
2019-06-01T07:44:45.235Z,2.60
2019-06-01T07:47:13.132Z,3.10
2019-06-01T07:49:41.107Z,3.30
2019-06-01T07:52:13.267Z,3.00
2019-06-01T07:54:39.120Z,2.87
2019-06-01T07:57:07.029Z,2.80
2019-06-01T07:59:35.033Z,2.93
2019-06-01T08:02:03.595Z,3.30
2019-06-01T08:04:47.511Z,2.63
2019-06-01T08:07:01.914Z,3.13
2019-06-01T08:09:29.945Z,2.60
2019-06-01T08:11:58.377Z,2.87
2019-06-01T08:14:26.532Z,2.30
2019-06-01T08:16:54.963Z,2.80
2019-06-01T08:19:23.866Z,2.60
2019-06-01T08:21:52.282Z,2.27
2019-06-01T08:24:20.510Z,2.33
2019-06-01T08:26:48.609Z,1.87
2019-06-01T08:29:16.711Z,2.40
2019-06-01T08:31:45.072Z,2.30
2019-06-01T08:34:13.354Z,2.40
2019-06-01T08:36:41.411Z,1.83
2019-06-01T08:39:09.874Z,2.60
2019-06-01T08:41:37.955Z,2.13
2019-06-01T08:44:06.134Z,1.70
2019-06-01T08:46:34.146Z,2.10
2019-06-01T08:49:02.214Z,1.67
2019-06-01T08:51:32.063Z,2.00
2019-06-01T08:54:00.155Z,1.97
2019-06-01T08:56:28.289Z,2.00
2019-06-01T08:58:56.929Z,2.03
2019-06-01T09:01:26.432Z,1.73
2019-06-01T09:03:54.580Z,1.93
2019-06-01T09:06:22.662Z,2.00
2019-06-01T09:08:51.085Z,2.07
2019-06-01T09:11:19.126Z,1.73
2019-06-01T09:13:47.144Z,1.57
2019-06-01T09:16:15.539Z,1.93
2019-06-01T09:18:43.708Z,1.40
2019-06-01T09:21:11.739Z,1.00
2019-06-01T09:23:39.999Z,1.00
2019-06-01T09:26:08.124Z,1.17
2019-06-01T09:28:36.283Z,0.80
2019-06-01T09:31:04.679Z,1.20
2019-06-01T09:33:32.596Z,0.80
2019-06-01T09:36:00.530Z,1.10
2019-06-01T09:38:29.604Z,1.33
2019-06-01T09:40:57.876Z,1.37
2019-06-01T09:43:26.516Z,1.30
2019-06-01T09:45:54.727Z,0.93
2019-06-01T09:48:22.654Z,1.20
2019-06-01T09:50:50.783Z,1.10
2019-06-01T09:53:19.149Z,1.00
2019-06-01T09:55:47.209Z,1.43
2019-06-01T09:58:15.136Z,1.03
2019-06-01T10:00:44.011Z,0.90
2019-06-01T10:03:12.168Z,1.10
2019-06-01T10:05:40.102Z,1.40
2019-06-01T10:08:08.169Z,0.80
2019-06-01T10:10:36.081Z,1.10
2019-06-01T10:13:07.661Z,0.90
2019-06-01T10:15:36.377Z,0.90
2019-06-01T10:18:04.799Z,0.90
2019-06-01T10:20:33.273Z,1.00
2019-06-01T10:23:01.289Z,1.23
2019-06-01T10:25:30.338Z,0.80
2019-06-01T10:27:59.219Z,0.70
2019-06-01T10:30:28.179Z,0.70
2019-06-01T10:32:56.397Z,0.80
2019-06-01T10:35:24.767Z,0.90
2019-06-01T10:37:53.380Z,0.83
2019-06-01T10:40:21.720Z,0.90
2019-06-01T10:42:49.853Z,0.80
2019-06-01T10:45:18.367Z,0.70
2019-06-01T10:47:46.397Z,0.70
2019-06-01T10:50:17.494Z,0.70
2019-06-01T10:52:45.673Z,0.70
2019-06-01T10:55:15.240Z,0.80
2019-06-01T10:57:43.553Z,0.90
2019-06-01T11:00:13.628Z,0.73
2019-06-01T11:02:43.118Z,0.70
2019-06-01T11:05:11.436Z,0.70
2019-06-01T11:07:40.908Z,0.60
2019-06-01T11:10:10.255Z,0.80
2019-06-01T11:12:39.136Z,0.80
2019-06-01T11:15:07.519Z,0.60
2019-06-01T11:17:35.560Z,0.60
2019-06-01T11:20:04.080Z,0.73
2019-06-01T11:22:33.319Z,0.70
2019-06-01T11:25:01.559Z,0.70
2019-06-01T11:27:29.726Z,0.70
2019-06-01T11:29:57.782Z,0.70
2019-06-01T11:32:25.775Z,0.60
2019-06-01T11:34:53.783Z,0.80
2019-06-01T11:37:21.923Z,0.70
2019-06-01T11:39:50.037Z,0.90
2019-06-01T11:42:20.050Z,0.80
2019-06-01T11:44:48.290Z,0.70
2019-06-01T11:47:16.484Z,0.60
2019-06-01T11:49:45.116Z,0.70
2019-06-01T11:52:13.862Z,1.00
2019-06-01T11:54:43.282Z,0.87
2019-06-01T11:57:11.411Z,0.80
2019-06-01T11:59:39.549Z,0.80
2019-06-01T12:02:08.132Z,0.70
2019-06-01T12:04:36.087Z,1.00
2019-06-01T12:07:17.009Z,0.73
2019-06-01T12:09:34.258Z,0.60
2019-06-01T12:12:02.227Z,0.80
2019-06-01T12:14:30.393Z,0.60
2019-06-01T12:16:58.876Z,0.70
2019-06-01T12:19:26.892Z,0.77
2019-06-01T12:21:54.846Z,0.77
2019-06-01T12:24:25.677Z,0.80
2019-06-01T12:26:52.730Z,0.83
2019-06-01T12:29:20.746Z,1.00
2019-06-01T12:31:49.002Z,0.60
2019-06-01T12:34:16.928Z,0.70
2019-06-01T12:36:46.297Z,0.70
2019-06-01T12:39:14.555Z,0.70
2019-06-01T12:41:43.523Z,0.70
2019-06-01T12:44:12.804Z,0.60
2019-06-01T12:46:41.768Z,0.60
2019-06-01T12:49:10.342Z,0.70
2019-06-01T12:51:38.247Z,0.70
2019-06-01T12:54:06.231Z,0.77
2019-06-01T12:56:34.058Z,0.83
2019-06-01T12:59:02.148Z,0.63
2019-06-01T13:01:30.573Z,0.70
2019-06-01T13:03:58.559Z,0.60
2019-06-01T13:06:26.668Z,0.70
2019-06-01T13:08:54.563Z,0.63
2019-06-01T13:11:23.146Z,0.70
2019-06-01T13:13:51.438Z,0.60
2019-06-01T13:16:20.024Z,0.70
2019-06-01T13:18:49.450Z,0.70
2019-06-01T13:21:18.052Z,0.60
2019-06-01T13:23:46.004Z,0.70
2019-06-01T13:26:13.917Z,0.83
2019-06-01T13:28:42.012Z,0.70
2019-06-01T13:31:09.979Z,0.80
2019-06-01T13:33:38.231Z,0.90
2019-06-01T13:36:06.174Z,0.73
2019-06-01T13:38:34.220Z,0.80
2019-06-01T13:41:02.708Z,0.70
2019-06-01T13:43:30.789Z,0.80
2019-06-01T13:45:58.918Z,0.70
2019-06-01T13:48:26.896Z,0.80
2019-06-01T13:50:55.032Z,0.70
2019-06-01T13:53:23.200Z,0.73
2019-06-01T13:55:51.175Z,0.70
2019-06-01T13:58:19.239Z,0.57
2019-06-01T14:00:48.369Z,1.00
2019-06-01T14:03:16.372Z,0.80
2019-06-01T14:05:44.728Z,0.70
2019-06-01T14:08:28.159Z,0.63
2019-06-01T14:10:45.052Z,0.60
2019-06-01T14:13:13.198Z,0.63
2019-06-01T14:15:41.123Z,0.60
2019-06-01T14:18:09.361Z,0.60
2019-06-01T14:20:37.418Z,0.80
2019-06-01T14:23:05.872Z,0.73
2019-06-01T14:25:34.062Z,0.77
2019-06-01T14:28:02.361Z,0.70
2019-06-01T14:30:30.297Z,0.70
2019-06-01T14:32:58.220Z,0.90
2019-06-01T14:35:26.375Z,0.80
2019-06-01T14:37:55.135Z,0.70
2019-06-01T14:40:23.384Z,0.73
2019-06-01T14:42:52.013Z,0.67
2019-06-01T14:45:20.567Z,0.70
2019-06-01T14:47:49.380Z,0.90
2019-06-01T14:50:17.735Z,1.40
2019-06-01T14:52:45.869Z,0.80
2019-06-01T14:55:14.822Z,0.83
2019-06-01T14:57:42.841Z,0.77
2019-06-01T15:00:11.383Z,0.70
2019-06-01T15:02:39.479Z,0.70
2019-06-01T15:05:08.019Z,0.80
2019-06-01T15:07:36.205Z,0.70
2019-06-01T15:10:06.116Z,0.90
2019-06-01T15:12:34.136Z,0.90
2019-06-01T15:15:03.301Z,0.90
2019-06-01T15:17:31.854Z,0.90
2019-06-01T15:19:59.954Z,0.90
2019-06-01T15:22:27.976Z,0.90
2019-06-01T15:24:56.439Z,0.93
2019-06-01T15:27:24.546Z,1.00
2019-06-01T15:29:52.752Z,0.80
2019-06-01T15:32:20.874Z,1.00
2019-06-01T15:34:50.238Z,0.70
2019-06-01T15:37:18.498Z,0.70
2019-06-01T15:39:46.551Z,0.77
2019-06-01T15:42:14.851Z,0.73
2019-06-01T15:44:43.127Z,0.80
2019-06-01T15:47:11.138Z,1.00
2019-06-01T15:49:39.245Z,1.00
2019-06-01T15:52:07.210Z,0.80
2019-06-01T15:54:35.517Z,0.73
2019-06-01T15:57:03.741Z,1.00
2019-06-01T15:59:31.628Z,1.00
2019-06-01T16:01:59.608Z,1.00
2019-06-01T16:04:27.599Z,0.70
2019-06-01T16:06:55.556Z,0.90
2019-06-01T16:09:41.317Z,2.00
2019-06-01T16:11:53.767Z,6.50
2019-06-01T16:14:21.760Z,1.07
2019-06-01T16:16:49.820Z,0.90
2019-06-01T16:19:18.212Z,1.00
2019-06-01T16:21:46.075Z,0.90
2019-06-01T16:24:14.154Z,0.80
2019-06-01T16:26:42.167Z,1.00
2019-06-01T16:29:10.294Z,0.70
2019-06-01T16:31:38.244Z,0.80
2019-06-01T16:34:06.295Z,1.00
2019-06-01T16:36:34.389Z,0.87
2019-06-01T16:39:06.767Z,0.83
2019-06-01T16:41:34.522Z,0.83
2019-06-01T16:44:03.753Z,1.10
2019-06-01T16:46:32.214Z,0.80
2019-06-01T16:49:01.361Z,1.13
2019-06-01T16:51:53.683Z,0.87
2019-06-01T16:54:21.750Z,0.90
2019-06-01T16:56:49.998Z,0.90
2019-06-01T16:59:18.056Z,1.07
2019-06-01T17:01:46.033Z,1.00
2019-06-01T17:04:14.150Z,0.90
2019-06-01T17:06:42.388Z,0.90
2019-06-01T17:09:10.721Z,0.90
2019-06-01T17:11:39.358Z,0.80
2019-06-01T17:14:07.295Z,0.80
2019-06-01T17:16:35.461Z,0.70
2019-06-01T17:19:05.091Z,0.77
2019-06-01T17:21:33.544Z,0.90
2019-06-01T17:24:01.822Z,0.70
2019-06-01T17:26:30.041Z,0.80
2019-06-01T17:28:58.396Z,0.80
2019-06-01T17:31:26.379Z,0.90
2019-06-01T17:33:54.436Z,0.80
2019-06-01T17:36:24.101Z,0.73
2019-06-01T17:38:52.059Z,0.90
2019-06-01T17:41:20.338Z,1.13
2019-06-01T17:43:48.336Z,0.83
2019-06-01T17:46:16.806Z,0.90
2019-06-01T17:48:44.955Z,1.00
2019-06-01T17:51:13.285Z,1.40
2019-06-01T17:53:41.394Z,1.07
2019-06-01T17:56:10.167Z,1.00
2019-06-01T17:58:38.685Z,1.10
2019-06-01T18:01:08.135Z,1.00
2019-06-01T18:03:36.648Z,0.80
2019-06-01T18:06:05.830Z,0.90
2019-06-01T18:08:34.403Z,1.00
2019-06-01T18:11:02.454Z,0.87
2019-06-01T18:13:31.304Z,1.00
2019-06-01T18:15:59.845Z,0.73
2019-06-01T18:18:28.222Z,0.87
2019-06-01T18:20:56.784Z,0.90
2019-06-01T18:23:25.093Z,1.17
2019-06-01T18:25:53.207Z,2.33
2019-06-01T18:28:21.552Z,2.63
2019-06-01T18:30:51.378Z,1.67
2019-06-01T18:33:19.843Z,1.67
2019-06-01T18:35:47.745Z,2.03
2019-06-01T18:38:15.788Z,2.17
2019-06-01T18:40:43.881Z,1.60
2019-06-01T18:43:17.263Z,1.10
2019-06-01T18:45:47.104Z,0.80
2019-06-01T18:48:16.239Z,1.30
2019-06-01T18:50:45.388Z,1.30
2019-06-01T18:53:14.202Z,1.57
2019-06-01T18:55:42.351Z,1.10
2019-06-01T18:58:10.383Z,0.90
2019-06-01T19:00:40.090Z,0.80
2019-06-01T19:03:09.087Z,1.10
2019-06-01T19:05:37.258Z,0.80
2019-06-01T19:08:07.040Z,1.00
2019-06-01T19:10:35.410Z,1.00
2019-06-01T19:13:03.737Z,1.23
2019-06-01T19:15:31.791Z,1.10
2019-06-01T19:17:59.856Z,1.00
2019-06-01T19:20:28.428Z,0.90
2019-06-01T19:22:56.544Z,1.00
2019-06-01T19:25:25.271Z,0.90
2019-06-01T19:27:53.434Z,0.80
2019-06-01T19:30:38.304Z,0.90
2019-06-01T19:33:11.096Z,0.90
2019-06-01T19:35:38.371Z,0.70
2019-06-01T19:38:07.019Z,0.70
2019-06-01T19:40:37.994Z,0.90
2019-06-01T19:43:07.368Z,0.90
2019-06-01T19:45:35.963Z,0.70
2019-06-01T19:48:08.039Z,0.70
2019-06-01T19:50:36.811Z,0.70
2019-06-01T19:53:05.308Z,0.90
2019-06-01T19:55:33.550Z,0.70
2019-06-01T19:58:01.761Z,0.90
2019-06-01T20:00:30.131Z,0.80
2019-06-01T20:02:58.268Z,0.97
2019-06-01T20:05:27.394Z,0.90
2019-06-01T20:07:55.351Z,0.90
2019-06-01T20:10:23.749Z,1.10
2019-06-01T20:12:51.908Z,0.77
2019-06-01T20:15:19.920Z,0.90
2019-06-01T20:17:48.101Z,0.90
2019-06-01T20:20:19.662Z,1.07
2019-06-01T20:22:47.864Z,0.80
2019-06-01T20:25:17.393Z,1.00
2019-06-01T20:27:45.807Z,1.57
2019-06-01T20:30:15.761Z,1.70
2019-06-01T20:32:43.935Z,2.93
2019-06-01T20:35:13.911Z,1.97
2019-06-01T20:37:42.821Z,1.50
2019-06-01T20:40:12.143Z,1.03
2019-06-01T20:42:40.294Z,1.00
2019-06-01T20:45:08.697Z,1.00
2019-06-01T20:47:36.833Z,1.03
2019-06-01T20:50:07.090Z,0.90
2019-06-01T20:52:35.071Z,1.10
2019-06-01T20:55:04.864Z,1.03
2019-06-01T20:57:33.238Z,1.00
2019-06-01T21:00:01.506Z,0.70
2019-06-01T21:02:29.605Z,1.00
2019-06-01T21:04:57.697Z,0.90
2019-06-01T21:07:25.737Z,1.00
2019-06-01T21:09:53.624Z,1.30
2019-06-01T21:12:42.636Z,1.60
2019-06-01T21:14:51.795Z,1.10
2019-06-01T21:17:20.615Z,1.07
2019-06-01T21:19:48.878Z,1.00
2019-06-01T21:22:16.873Z,1.60
2019-06-01T21:24:45.168Z,1.63
2019-06-01T21:27:14.411Z,1.50
2019-06-01T21:29:42.420Z,2.00
2019-06-01T21:32:10.370Z,1.90
2019-06-01T21:34:38.386Z,2.03
2019-06-01T21:37:06.945Z,2.37
2019-06-01T21:39:35.022Z,1.90
2019-06-01T21:42:03.291Z,1.60
2019-06-01T21:44:31.668Z,1.93
2019-06-01T21:46:59.683Z,1.83
2019-06-01T21:49:27.737Z,2.07
2019-06-01T21:51:55.781Z,1.90
2019-06-01T21:54:24.635Z,2.57
2019-06-01T21:56:53.580Z,1.90
2019-06-01T21:59:22.670Z,1.73
2019-06-01T22:01:51.198Z,2.00
2019-06-01T22:04:20.722Z,1.90
2019-06-01T22:06:49.265Z,1.70
2019-06-01T22:09:17.335Z,1.50
2019-06-01T22:11:45.424Z,1.00
2019-06-01T22:14:13.594Z,0.80
2019-06-01T22:16:41.560Z,0.90
2019-06-01T22:19:09.626Z,1.17
2019-06-01T22:21:37.792Z,1.10
2019-06-01T22:24:06.255Z,1.20
2019-06-01T22:26:34.312Z,1.00
2019-06-01T22:29:02.557Z,1.23
2019-06-01T22:31:30.496Z,1.20
2019-06-01T22:33:58.470Z,1.43
2019-06-01T22:36:27.217Z,0.90
2019-06-01T22:38:55.202Z,0.90
2019-06-01T22:41:23.880Z,1.07
2019-06-01T22:43:51.871Z,1.00
2019-06-01T22:46:20.386Z,1.20
2019-06-01T22:48:48.400Z,2.03
2019-06-01T22:51:16.351Z,1.00
2019-06-01T22:53:44.344Z,1.10
2019-06-01T22:56:12.454Z,1.07
2019-06-01T22:58:40.650Z,1.00
2019-06-01T23:01:08.752Z,0.93
2019-06-01T23:03:36.769Z,1.13
2019-06-01T23:06:04.777Z,0.97
2019-06-01T23:08:32.684Z,1.00
2019-06-01T23:11:00.573Z,1.10
2019-06-01T23:13:28.407Z,0.70
2019-06-01T23:15:56.408Z,1.10
2019-06-01T23:18:25.562Z,0.90
2019-06-01T23:20:53.749Z,0.93
2019-06-01T23:23:22.408Z,0.90
2019-06-01T23:25:50.494Z,0.70
2019-06-01T23:28:18.622Z,0.80
2019-06-01T23:30:46.704Z,0.80
2019-06-01T23:33:15.158Z,1.00
2019-06-01T23:35:43.479Z,1.20
2019-06-01T23:38:12.801Z,1.00
2019-06-01T23:40:40.754Z,0.90
2019-06-01T23:43:08.849Z,1.00
2019-06-01T23:45:36.726Z,0.90
2019-06-01T23:48:04.785Z,0.80
2019-06-01T23:50:34.053Z,0.70
2019-06-01T23:53:13.200Z,1.13
2019-06-01T23:55:32.360Z,0.90
2019-06-01T23:58:00.464Z,1.10
